sensor_id;sensor_type;location;lat;lon;timestamp;pressure;altitude;pressure_sealevel;temperature;humidity
36964;BME280;22878;48.616;35.326;2023-03-03T00:01:24;101254.37;;;-3.17;100.00
36964;BME280;22878;48.616;35.326;2023-03-03T00:03:51;101254.77;;;-3.18;100.00
36964;BME280;22878;48.616;35.326;2023-03-03T00:06:17;101253.83;;;-3.21;100.00
36964;BME280;22878;48.616;35.326;2023-03-03T00:08:42;101252.70;;;-3.24;100.00
36964;BME280;22878;48.616;35.326;2023-03-03T00:11:09;101254.83;;;-3.26;100.00
36964;BME280;22878;48.616;35.326;2023-03-03T00:13:55;101247.20;;;-3.29;100.00
36964;BME280;22878;48.616;35.326;2023-03-03T00:16:37;101242.40;;;-3.28;100.00
36964;BME280;22878;48.616;35.326;2023-03-03T00:19:12;101241.02;;;-3.32;100.00
36964;BME280;22878;48.616;35.326;2023-03-03T00:21:41;101242.33;;;-3.34;100.00
36964;BME280;22878;48.616;35.326;2023-03-03T00:24:43;101235.92;;;-3.35;100.00
36964;BME280;22878;48.616;35.326;2023-03-03T00:27:33;101234.61;;;-3.42;100.00
36964;BME280;22878;48.616;35.326;2023-03-03T00:30:00;101231.10;;;-3.44;100.00
36964;BME280;22878;48.616;35.326;2023-03-03T00:32:27;101224.95;;;-3.47;100.00
36964;BME280;22878;48.616;35.326;2023-03-03T00:35:01;101224.79;;;-3.49;100.00
36964;BME280;22878;48.616;35.326;2023-03-03T00:37:41;101220.42;;;-3.51;100.00
36964;BME280;22878;48.616;35.326;2023-03-03T00:42:40;101219.48;;;-3.55;100.00
36964;BME280;22878;48.616;35.326;2023-03-03T00:45:33;101222.48;;;-3.57;100.00
36964;BME280;22878;48.616;35.326;2023-03-03T00:48:20;101221.73;;;-3.58;100.00
36964;BME280;22878;48.616;35.326;2023-03-03T00:50:46;101215.40;;;-3.60;100.00
36964;BME280;22878;48.616;35.326;2023-03-03T00:53:20;101218.10;;;-3.61;100.00
36964;BME280;22878;48.616;35.326;2023-03-03T00:55:48;101216.41;;;-3.61;100.00
36964;BME280;22878;48.616;35.326;2023-03-03T00:58:14;101210.67;;;-3.62;100.00
36964;BME280;22878;48.616;35.326;2023-03-03T01:00:40;101209.18;;;-3.63;100.00
36964;BME280;22878;48.616;35.326;2023-03-03T01:03:14;101204.38;;;-3.64;100.00
36964;BME280;22878;48.616;35.326;2023-03-03T01:05:40;101201.39;;;-3.66;100.00
36964;BME280;22878;48.616;35.326;2023-03-03T01:08:06;101200.95;;;-3.65;100.00
36964;BME280;22878;48.616;35.326;2023-03-03T01:13:51;101194.06;;;-3.65;100.00
36964;BME280;22878;48.616;35.326;2023-03-03T01:16:17;101191.77;;;-3.67;100.00
36964;BME280;22878;48.616;35.326;2023-03-03T01:18:43;101194.86;;;-3.67;100.00
36964;BME280;22878;48.616;35.326;2023-03-03T01:21:10;101197.84;;;-3.68;100.00
36964;BME280;22878;48.616;35.326;2023-03-03T01:23:36;101203.29;;;-3.68;100.00
36964;BME280;22878;48.616;35.326;2023-03-03T01:26:03;101201.49;;;-3.67;100.00
36964;BME280;22878;48.616;35.326;2023-03-03T01:28:29;101197.67;;;-3.66;100.00
36964;BME280;22878;48.616;35.326;2023-03-03T01:34:13;101194.41;;;-3.59;100.00
36964;BME280;22878;48.616;35.326;2023-03-03T01:36:38;101192.61;;;-3.59;100.00
36964;BME280;22878;48.616;35.326;2023-03-03T01:39:04;101188.82;;;-3.58;100.00
36964;BME280;22878;48.616;35.326;2023-03-03T01:41:30;101189.12;;;-3.57;100.00
36964;BME280;22878;48.616;35.326;2023-03-03T01:43:58;101189.84;;;-3.57;100.00
36964;BME280;22878;48.616;35.326;2023-03-03T01:49:25;101185.23;;;-3.60;100.00
36964;BME280;22878;48.616;35.326;2023-03-03T01:51:56;101183.40;;;-3.60;100.00
36964;BME280;22878;48.616;35.326;2023-03-03T01:54:38;101185.77;;;-3.59;100.00
36964;BME280;22878;48.616;35.326;2023-03-03T02:00:28;101179.33;;;-3.58;100.00
36964;BME280;22878;48.616;35.326;2023-03-03T02:02:55;101174.61;;;-3.58;100.00
36964;BME280;22878;48.616;35.326;2023-03-03T02:05:21;101172.02;;;-3.58;100.00
36964;BME280;22878;48.616;35.326;2023-03-03T02:07:46;101171.80;;;-3.58;100.00
36964;BME280;22878;48.616;35.326;2023-03-03T02:10:17;101166.33;;;-3.58;100.00
36964;BME280;22878;48.616;35.326;2023-03-03T02:16:02;101163.29;;;-3.55;100.00
36964;BME280;22878;48.616;35.326;2023-03-03T02:18:28;101160.33;;;-3.57;100.00
36964;BME280;22878;48.616;35.326;2023-03-03T02:21:04;101160.61;;;-3.56;100.00
36964;BME280;22878;48.616;35.326;2023-03-03T02:23:52;101161.92;;;-3.57;100.00
36964;BME280;22878;48.616;35.326;2023-03-03T02:29:55;101153.31;;;-3.56;100.00
36964;BME280;22878;48.616;35.326;2023-03-03T02:32:21;101150.08;;;-3.58;100.00
36964;BME280;22878;48.616;35.326;2023-03-03T02:34:50;101147.86;;;-3.57;100.00
36964;BME280;22878;48.616;35.326;2023-03-03T02:37:16;101141.05;;;-3.54;100.00
36964;BME280;22878;48.616;35.326;2023-03-03T02:39:43;101141.24;;;-3.51;100.00
36964;BME280;22878;48.616;35.326;2023-03-03T02:42:14;101134.07;;;-3.53;100.00
36964;BME280;22878;48.616;35.326;2023-03-03T02:44:42;101133.46;;;-3.54;100.00
36964;BME280;22878;48.616;35.326;2023-03-03T02:47:07;101134.15;;;-3.54;100.00
36964;BME280;22878;48.616;35.326;2023-03-03T02:49:35;101133.13;;;-3.56;100.00
36964;BME280;22878;48.616;35.326;2023-03-03T02:52:03;101127.73;;;-3.58;100.00
36964;BME280;22878;48.616;35.326;2023-03-03T02:54:30;101126.19;;;-3.58;100.00
36964;BME280;22878;48.616;35.326;2023-03-03T02:56:56;101121.69;;;-3.57;100.00
36964;BME280;22878;48.616;35.326;2023-03-03T02:59:22;101116.16;;;-3.57;100.00
36964;BME280;22878;48.616;35.326;2023-03-03T03:01:48;101115.41;;;-3.56;100.00
36964;BME280;22878;48.616;35.326;2023-03-03T03:04:19;101114.74;;;-3.58;100.00
36964;BME280;22878;48.616;35.326;2023-03-03T03:06:45;101112.46;;;-3.58;100.00
36964;BME280;22878;48.616;35.326;2023-03-03T03:09:12;101109.36;;;-3.58;100.00
36964;BME280;22878;48.616;35.326;2023-03-03T03:11:38;101109.10;;;-3.59;100.00
36964;BME280;22878;48.616;35.326;2023-03-03T03:14:05;101104.98;;;-3.60;100.00
36964;BME280;22878;48.616;35.326;2023-03-03T03:16:31;101102.31;;;-3.60;100.00
36964;BME280;22878;48.616;35.326;2023-03-03T03:18:59;101102.52;;;-3.59;100.00
36964;BME280;22878;48.616;35.326;2023-03-03T03:21:25;101102.73;;;-3.57;100.00
36964;BME280;22878;48.616;35.326;2023-03-03T03:23:51;101098.17;;;-3.55;100.00
36964;BME280;22878;48.616;35.326;2023-03-03T03:26:17;101094.07;;;-3.52;100.00
36964;BME280;22878;48.616;35.326;2023-03-03T03:28:45;101091.73;;;-3.49;100.00
36964;BME280;22878;48.616;35.326;2023-03-03T03:31:11;101091.41;;;-3.46;100.00
36964;BME280;22878;48.616;35.326;2023-03-03T03:33:36;101086.45;;;-3.42;100.00
36964;BME280;22878;48.616;35.326;2023-03-03T03:36:02;101084.13;;;-3.40;100.00
36964;BME280;22878;48.616;35.326;2023-03-03T03:38:29;101087.85;;;-3.39;100.00
36964;BME280;22878;48.616;35.326;2023-03-03T03:40:55;101085.21;;;-3.39;100.00
36964;BME280;22878;48.616;35.326;2023-03-03T03:43:21;101086.20;;;-3.40;100.00
36964;BME280;22878;48.616;35.326;2023-03-03T03:45:47;101090.09;;;-3.40;100.00
36964;BME280;22878;48.616;35.326;2023-03-03T03:48:13;101082.74;;;-3.38;100.00
36964;BME280;22878;48.616;35.326;2023-03-03T03:50:38;101083.61;;;-3.38;100.00
36964;BME280;22878;48.616;35.326;2023-03-03T03:53:05;101084.15;;;-3.40;100.00
36964;BME280;22878;48.616;35.326;2023-03-03T03:55:30;101084.84;;;-3.42;100.00
36964;BME280;22878;48.616;35.326;2023-03-03T03:57:57;101084.94;;;-3.41;100.00
36964;BME280;22878;48.616;35.326;2023-03-03T04:00:23;101082.02;;;-3.36;100.00
36964;BME280;22878;48.616;35.326;2023-03-03T04:02:49;101078.84;;;-3.30;100.00
36964;BME280;22878;48.616;35.326;2023-03-03T04:05:15;101078.88;;;-3.25;100.00
36964;BME280;22878;48.616;35.326;2023-03-03T04:07:40;101075.71;;;-3.20;100.00
36964;BME280;22878;48.616;35.326;2023-03-03T04:10:06;101078.08;;;-3.17;100.00
36964;BME280;22878;48.616;35.326;2023-03-03T04:12:32;101080.47;;;-3.06;100.00
36964;BME280;22878;48.616;35.326;2023-03-03T04:15:08;101081.80;;;-2.95;100.00
36964;BME280;22878;48.616;35.326;2023-03-03T04:17:34;101084.86;;;-2.86;100.00
36964;BME280;22878;48.616;35.326;2023-03-03T04:20:00;101087.91;;;-2.78;100.00
36964;BME280;22878;48.616;35.326;2023-03-03T04:22:26;101086.02;;;-2.70;100.00
36964;BME280;22878;48.616;35.326;2023-03-03T04:24:52;101080.05;;;-2.62;100.00
36964;BME280;22878;48.616;35.326;2023-03-03T04:27:18;101077.56;;;-2.53;100.00
36964;BME280;22878;48.616;35.326;2023-03-03T04:29:43;101078.06;;;-2.46;100.00
36964;BME280;22878;48.616;35.326;2023-03-03T04:32:09;101075.53;;;-2.41;100.00
36964;BME280;22878;48.616;35.326;2023-03-03T04:34:34;101076.17;;;-2.34;100.00
36964;BME280;22878;48.616;35.326;2023-03-03T04:37:00;101075.87;;;-2.29;100.00
36964;BME280;22878;48.616;35.326;2023-03-03T04:39:27;101075.82;;;-2.25;100.00
36964;BME280;22878;48.616;35.326;2023-03-03T04:41:52;101075.45;;;-2.23;100.00
36964;BME280;22878;48.616;35.326;2023-03-03T04:44:18;101070.21;;;-2.22;100.00
36964;BME280;22878;48.616;35.326;2023-03-03T04:46:44;101066.75;;;-2.19;100.00
36964;BME280;22878;48.616;35.326;2023-03-03T04:49:09;101069.41;;;-2.11;100.00
36964;BME280;22878;48.616;35.326;2023-03-03T04:51:35;101069.74;;;-2.05;100.00
36964;BME280;22878;48.616;35.326;2023-03-03T04:54:00;101073.47;;;-1.93;100.00
36964;BME280;22878;48.616;35.326;2023-03-03T04:56:26;101073.01;;;-1.84;100.00
36964;BME280;22878;48.616;35.326;2023-03-03T04:58:53;101074.22;;;-1.74;100.00
36964;BME280;22878;48.616;35.326;2023-03-03T05:01:18;101076.14;;;-1.58;100.00
36964;BME280;22878;48.616;35.326;2023-03-03T05:03:44;101080.67;;;-1.35;100.00
36964;BME280;22878;48.616;35.326;2023-03-03T05:06:10;101080.00;;;-0.94;100.00
36964;BME280;22878;48.616;35.326;2023-03-03T05:08:35;101079.60;;;0.14;100.00
36964;BME280;22878;48.616;35.326;2023-03-03T05:11:01;101082.37;;;1.43;100.00
36964;BME280;22878;48.616;35.326;2023-03-03T05:13:27;101088.48;;;2.69;100.00
36964;BME280;22878;48.616;35.326;2023-03-03T05:15:54;101085.20;;;3.42;100.00
36964;BME280;22878;48.616;35.326;2023-03-03T05:18:23;101084.39;;;3.35;100.00
36964;BME280;22878;48.616;35.326;2023-03-03T05:20:50;101088.95;;;3.19;100.00
36964;BME280;22878;48.616;35.326;2023-03-03T05:23:16;101094.34;;;2.98;100.00
36964;BME280;22878;48.616;35.326;2023-03-03T05:25:42;101096.50;;;2.84;100.00
36964;BME280;22878;48.616;35.326;2023-03-03T05:28:08;101094.77;;;2.82;100.00
36964;BME280;22878;48.616;35.326;2023-03-03T05:30:34;101099.14;;;2.83;100.00
36964;BME280;22878;48.616;35.326;2023-03-03T05:33:00;101092.88;;;2.76;100.00
36964;BME280;22878;48.616;35.326;2023-03-03T05:35:26;101095.83;;;2.77;100.00
36964;BME280;22878;48.616;35.326;2023-03-03T05:37:51;101093.52;;;2.77;100.00
36964;BME280;22878;48.616;35.326;2023-03-03T05:40:17;101095.89;;;2.80;100.00
36964;BME280;22878;48.616;35.326;2023-03-03T05:42:43;101094.64;;;2.89;100.00
36964;BME280;22878;48.616;35.326;2023-03-03T05:45:10;101092.07;;;3.08;100.00
36964;BME280;22878;48.616;35.326;2023-03-03T05:47:36;101089.88;;;3.85;100.00
36964;BME280;22878;48.616;35.326;2023-03-03T05:50:05;101084.08;;;4.30;100.00
36964;BME280;22878;48.616;35.326;2023-03-03T05:52:30;101085.80;;;4.22;100.00
36964;BME280;22878;48.616;35.326;2023-03-03T05:54:56;101087.30;;;4.10;100.00
36964;BME280;22878;48.616;35.326;2023-03-03T05:57:22;101093.09;;;3.96;100.00
36964;BME280;22878;48.616;35.326;2023-03-03T05:59:48;101100.95;;;3.84;100.00
36964;BME280;22878;48.616;35.326;2023-03-03T06:02:13;101106.25;;;3.72;100.00
36964;BME280;22878;48.616;35.326;2023-03-03T06:04:39;101108.69;;;3.60;100.00
36964;BME280;22878;48.616;35.326;2023-03-03T06:07:05;101103.69;;;3.48;100.00
36964;BME280;22878;48.616;35.326;2023-03-03T06:09:31;101100.01;;;3.48;100.00
36964;BME280;22878;48.616;35.326;2023-03-03T06:11:57;101100.95;;;3.47;100.00
36964;BME280;22878;48.616;35.326;2023-03-03T06:14:23;101099.35;;;3.50;100.00
36964;BME280;22878;48.616;35.326;2023-03-03T06:16:49;101096.95;;;3.56;100.00
36964;BME280;22878;48.616;35.326;2023-03-03T06:19:15;101099.16;;;3.66;100.00
36964;BME280;22878;48.616;35.326;2023-03-03T06:21:41;101098.77;;;3.87;100.00
36964;BME280;22878;48.616;35.326;2023-03-03T06:24:09;101096.17;;;4.12;100.00
36964;BME280;22878;48.616;35.326;2023-03-03T06:26:35;101099.50;;;4.29;100.00
36964;BME280;22878;48.616;35.326;2023-03-03T06:29:00;101088.83;;;4.39;100.00
36964;BME280;22878;48.616;35.326;2023-03-03T06:31:26;101092.27;;;4.49;100.00
36964;BME280;22878;48.616;35.326;2023-03-03T06:33:52;101094.23;;;4.58;100.00
36964;BME280;22878;48.616;35.326;2023-03-03T06:36:18;101095.59;;;4.57;100.00
36964;BME280;22878;48.616;35.326;2023-03-03T06:38:44;101089.46;;;4.52;100.00
36964;BME280;22878;48.616;35.326;2023-03-03T06:41:10;101086.97;;;4.52;100.00
36964;BME280;22878;48.616;35.326;2023-03-03T06:43:36;101080.15;;;4.50;100.00
36964;BME280;22878;48.616;35.326;2023-03-03T06:46:03;101081.27;;;4.48;100.00
36964;BME280;22878;48.616;35.326;2023-03-03T06:48:30;101081.79;;;4.50;100.00
36964;BME280;22878;48.616;35.326;2023-03-03T06:50:57;101087.14;;;4.42;100.00
36964;BME280;22878;48.616;35.326;2023-03-03T06:53:25;101083.78;;;4.34;100.00
36964;BME280;22878;48.616;35.326;2023-03-03T06:55:51;101078.64;;;4.42;100.00
36964;BME280;22878;48.616;35.326;2023-03-03T06:58:19;101070.20;;;4.62;100.00
36964;BME280;22878;48.616;35.326;2023-03-03T07:00:59;101068.84;;;4.76;100.00
36964;BME280;22878;48.616;35.326;2023-03-03T07:03:27;101072.65;;;4.82;100.00
36964;BME280;22878;48.616;35.326;2023-03-03T07:05:57;101069.03;;;4.85;100.00
36964;BME280;22878;48.616;35.326;2023-03-03T07:08:23;101069.77;;;4.97;100.00
36964;BME280;22878;48.616;35.326;2023-03-03T07:10:51;101068.73;;;5.08;100.00
36964;BME280;22878;48.616;35.326;2023-03-03T07:13:23;101069.51;;;5.12;100.00
36964;BME280;22878;48.616;35.326;2023-03-03T07:15:53;101071.33;;;5.18;100.00
36964;BME280;22878;48.616;35.326;2023-03-03T07:20:57;101064.83;;;5.46;100.00
36964;BME280;22878;48.616;35.326;2023-03-03T07:23:26;101064.48;;;5.60;100.00
36964;BME280;22878;48.616;35.326;2023-03-03T07:25:52;101064.36;;;5.62;100.00
36964;BME280;22878;48.616;35.326;2023-03-03T07:28:25;101066.09;;;5.67;100.00
36964;BME280;22878;48.616;35.326;2023-03-03T07:30:51;101064.18;;;5.70;100.00
36964;BME280;22878;48.616;35.326;2023-03-03T07:33:40;101068.91;;;5.69;100.00
36964;BME280;22878;48.616;35.326;2023-03-03T07:36:23;101065.75;;;5.64;100.00
36964;BME280;22878;48.616;35.326;2023-03-03T07:38:56;101065.91;;;5.64;100.00
36964;BME280;22878;48.616;35.326;2023-03-03T07:41:22;101063.05;;;5.67;100.00
36964;BME280;22878;48.616;35.326;2023-03-03T07:43:53;101057.89;;;5.70;100.00
36964;BME280;22878;48.616;35.326;2023-03-03T07:46:25;101057.69;;;5.75;100.00
36964;BME280;22878;48.616;35.326;2023-03-03T07:48:56;101057.66;;;5.81;100.00
36964;BME280;22878;48.616;35.326;2023-03-03T07:51:37;101058.45;;;5.92;100.00
36964;BME280;22878;48.616;35.326;2023-03-03T07:56:56;101056.73;;;5.95;100.00
36964;BME280;22878;48.616;35.326;2023-03-03T07:59:26;101054.48;;;5.99;100.00
36964;BME280;22878;48.616;35.326;2023-03-03T08:01:56;101051.27;;;5.99;100.00
36964;BME280;22878;48.616;35.326;2023-03-03T08:04:28;101049.13;;;5.97;100.00
36964;BME280;22878;48.616;35.326;2023-03-03T08:07:01;101049.89;;;5.96;100.00
36964;BME280;22878;48.616;35.326;2023-03-03T08:09:37;101045.56;;;6.01;100.00
36964;BME280;22878;48.616;35.326;2023-03-03T08:14:34;101046.91;;;5.92;100.00
36964;BME280;22878;48.616;35.326;2023-03-03T08:17:00;101046.15;;;5.85;100.00
36964;BME280;22878;48.616;35.326;2023-03-03T08:19:27;101045.83;;;5.82;100.00
36964;BME280;22878;48.616;35.326;2023-03-03T08:22:08;101041.52;;;5.91;100.00
36964;BME280;22878;48.616;35.326;2023-03-03T08:24:36;101040.92;;;5.89;100.00
36964;BME280;22878;48.616;35.326;2023-03-03T08:27:02;101039.24;;;5.84;100.00
36964;BME280;22878;48.616;35.326;2023-03-03T08:29:27;101036.58;;;5.87;100.00
36964;BME280;22878;48.616;35.326;2023-03-03T08:31:53;101036.59;;;5.91;100.00
36964;BME280;22878;48.616;35.326;2023-03-03T08:34:18;101031.27;;;5.97;100.00
36964;BME280;22878;48.616;35.326;2023-03-03T08:36:44;101024.96;;;6.03;100.00
36964;BME280;22878;48.616;35.326;2023-03-03T08:39:11;101022.64;;;6.00;100.00
36964;BME280;22878;48.616;35.326;2023-03-03T08:41:37;101022.53;;;6.08;100.00
36964;BME280;22878;48.616;35.326;2023-03-03T08:44:05;101021.46;;;6.16;100.00
36964;BME280;22878;48.616;35.326;2023-03-03T08:46:31;101015.98;;;6.17;100.00
36964;BME280;22878;48.616;35.326;2023-03-03T08:52:18;101006.95;;;6.30;100.00
36964;BME280;22878;48.616;35.326;2023-03-03T08:54:43;101007.92;;;6.33;100.00
36964;BME280;22878;48.616;35.326;2023-03-03T08:57:09;101012.23;;;6.23;100.00
36964;BME280;22878;48.616;35.326;2023-03-03T08:59:35;101009.95;;;6.20;100.00
36964;BME280;22878;48.616;35.326;2023-03-03T09:02:04;101008.67;;;6.12;100.00
36964;BME280;22878;48.616;35.326;2023-03-03T09:04:30;101006.31;;;6.08;100.00
36964;BME280;22878;48.616;35.326;2023-03-03T09:06:56;101006.27;;;5.99;100.00
36964;BME280;22878;48.616;35.326;2023-03-03T09:09:22;101003.58;;;5.94;100.00
36964;BME280;22878;48.616;35.326;2023-03-03T09:11:48;101001.44;;;5.95;100.00
36964;BME280;22878;48.616;35.326;2023-03-03T09:14:16;100998.77;;;6.00;100.00
36964;BME280;22878;48.616;35.326;2023-03-03T09:16:50;100996.85;;;6.07;100.00
36964;BME280;22878;48.616;35.326;2023-03-03T09:21:46;100987.42;;;6.25;100.00
36964;BME280;22878;48.616;35.326;2023-03-03T09:24:26;100983.36;;;6.35;100.00
36964;BME280;22878;48.616;35.326;2023-03-03T09:26:52;100983.25;;;6.42;100.00
36964;BME280;22878;48.616;35.326;2023-03-03T09:29:28;100981.15;;;6.42;100.00
36964;BME280;22878;48.616;35.326;2023-03-03T09:34:37;100974.66;;;6.32;100.00
36964;BME280;22878;48.616;35.326;2023-03-03T09:37:26;100972.55;;;6.30;100.00
36964;BME280;22878;48.616;35.326;2023-03-03T09:39:56;100969.73;;;6.30;100.00
36964;BME280;22878;48.616;35.326;2023-03-03T09:43:03;100962.24;;;6.31;100.00
36964;BME280;22878;48.616;35.326;2023-03-03T09:51:01;100946.41;;;6.51;100.00
36964;BME280;22878;48.616;35.326;2023-03-03T09:56:44;100937.49;;;6.52;100.00
36964;BME280;22878;48.616;35.326;2023-03-03T09:59:40;100938.08;;;6.56;100.00
36964;BME280;22878;48.616;35.326;2023-03-03T10:05:31;100928.52;;;6.63;100.00
36964;BME280;22878;48.616;35.326;2023-03-03T10:08:23;100929.89;;;6.68;100.00
36964;BME280;22878;48.616;35.326;2023-03-03T10:16:51;100920.76;;;6.61;100.00
36964;BME280;22878;48.616;35.326;2023-03-03T10:19:38;100916.36;;;6.56;100.00
36964;BME280;22878;48.616;35.326;2023-03-03T10:22:20;100911.49;;;6.59;100.00
36964;BME280;22878;48.616;35.326;2023-03-03T10:36:50;100896.75;;;6.90;100.00
36964;BME280;22878;48.616;35.326;2023-03-03T10:39:44;100892.27;;;6.95;100.00
36964;BME280;22878;48.616;35.326;2023-03-03T10:57:10;100866.29;;;7.30;100.00
36964;BME280;22878;48.616;35.326;2023-03-03T11:02:42;100864.77;;;7.27;100.00
36964;BME280;22878;48.616;35.326;2023-03-03T11:08:08;100852.52;;;7.25;100.00
36964;BME280;22878;48.616;35.326;2023-03-03T11:13:31;100842.80;;;7.41;100.00
36964;BME280;22878;48.616;35.326;2023-03-03T11:24:30;100827.15;;;7.61;99.44
36964;BME280;22878;48.616;35.326;2023-03-03T11:32:39;100819.45;;;7.84;100.00
36964;BME280;22878;48.616;35.326;2023-03-03T11:37:49;100816.95;;;7.85;99.57
36964;BME280;22878;48.616;35.326;2023-03-03T11:40:23;100814.00;;;7.91;99.86
36964;BME280;22878;48.616;35.326;2023-03-03T11:45:59;100807.41;;;7.96;98.13
36964;BME280;22878;48.616;35.326;2023-03-03T11:54:14;100796.58;;;7.93;96.92
36964;BME280;22878;48.616;35.326;2023-03-03T11:56:45;100800.16;;;7.85;95.70
36964;BME280;22878;48.616;35.326;2023-03-03T11:59:58;100797.42;;;7.86;95.28
36964;BME280;22878;48.616;35.326;2023-03-03T12:02:38;100796.45;;;7.72;92.48
36964;BME280;22878;48.616;35.326;2023-03-03T12:08:07;100793.82;;;7.45;94.13
36964;BME280;22878;48.616;35.326;2023-03-03T12:13:38;100791.65;;;7.39;92.85
36964;BME280;22878;48.616;35.326;2023-03-03T12:27:05;100785.73;;;6.90;91.69
36964;BME280;22878;48.616;35.326;2023-03-03T12:29:47;100781.46;;;6.75;93.11
36964;BME280;22878;48.616;35.326;2023-03-03T12:35:41;100774.41;;;6.62;94.14
36964;BME280;22878;48.616;35.326;2023-03-03T12:41:15;100773.42;;;6.58;94.41
36964;BME280;22878;48.616;35.326;2023-03-03T12:49:45;100767.31;;;6.54;94.19
36964;BME280;22878;48.616;35.326;2023-03-03T12:52:45;100763.17;;;6.55;94.62
36964;BME280;22878;48.616;35.326;2023-03-03T13:06:11;100742.10;;;6.47;92.28
36964;BME280;22878;48.616;35.326;2023-03-03T13:15:36;100736.23;;;6.48;92.56
36964;BME280;22878;48.616;35.326;2023-03-03T13:20:48;100728.79;;;6.44;93.98
36964;BME280;22878;48.616;35.326;2023-03-03T13:26:25;100724.75;;;6.39;95.20
36964;BME280;22878;48.616;35.326;2023-03-03T13:29:19;100721.25;;;6.34;95.40
36964;BME280;22878;48.616;35.326;2023-03-03T13:32:21;100721.26;;;6.30;95.56
36964;BME280;22878;48.616;35.326;2023-03-03T13:37:32;100713.20;;;6.18;95.76
36964;BME280;22878;48.616;35.326;2023-03-03T13:40:16;100712.14;;;6.11;96.11
36964;BME280;22878;48.616;35.326;2023-03-03T13:45:36;100706.31;;;6.03;97.06
36964;BME280;22878;48.616;35.326;2023-03-03T13:48:21;100704.98;;;5.99;97.82
36964;BME280;22878;48.616;35.326;2023-03-03T13:50:56;100703.68;;;5.93;98.04
36964;BME280;22878;48.616;35.326;2023-03-03T13:53:37;100702.45;;;5.88;98.38
36964;BME280;22878;48.616;35.326;2023-03-03T14:02:00;100698.30;;;5.81;100.00
36964;BME280;22878;48.616;35.326;2023-03-03T14:05:00;100696.44;;;5.77;100.00
36964;BME280;22878;48.616;35.326;2023-03-03T14:07:32;100692.90;;;5.73;100.00
36964;BME280;22878;48.616;35.326;2023-03-03T14:12:41;100684.85;;;5.59;100.00
36964;BME280;22878;48.616;35.326;2023-03-03T14:15:17;100681.68;;;5.53;100.00
36964;BME280;22878;48.616;35.326;2023-03-03T14:20:28;100670.92;;;5.42;100.00
36964;BME280;22878;48.616;35.326;2023-03-03T14:23:01;100668.88;;;5.36;100.00
36964;BME280;22878;48.616;35.326;2023-03-03T14:25:51;100666.41;;;5.33;100.00
36964;BME280;22878;48.616;35.326;2023-03-03T14:28:19;100668.74;;;5.26;100.00
36964;BME280;22878;48.616;35.326;2023-03-03T14:30:46;100667.63;;;5.24;100.00
36964;BME280;22878;48.616;35.326;2023-03-03T14:35:50;100667.77;;;5.15;100.00
36964;BME280;22878;48.616;35.326;2023-03-03T14:38:36;100667.75;;;5.09;100.00
36964;BME280;22878;48.616;35.326;2023-03-03T14:43:42;100669.55;;;4.97;100.00
36964;BME280;22878;48.616;35.326;2023-03-03T14:48:57;100669.42;;;4.85;100.00
36964;BME280;22878;48.616;35.326;2023-03-03T14:51:40;100666.17;;;4.81;100.00
36964;BME280;22878;48.616;35.326;2023-03-03T14:54:27;100665.00;;;4.74;100.00
36964;BME280;22878;48.616;35.326;2023-03-03T14:59:23;100667.91;;;4.67;100.00
36964;BME280;22878;48.616;35.326;2023-03-03T15:04:44;100667.59;;;4.60;100.00
36964;BME280;22878;48.616;35.326;2023-03-03T15:07:34;100666.02;;;4.58;100.00
36964;BME280;22878;48.616;35.326;2023-03-03T15:10:01;100668.34;;;4.55;100.00
36964;BME280;22878;48.616;35.326;2023-03-03T15:12:33;100668.64;;;4.53;100.00
36964;BME280;22878;48.616;35.326;2023-03-03T15:23:04;100669.13;;;4.37;100.00
36964;BME280;22878;48.616;35.326;2023-03-03T15:25:55;100666.14;;;4.31;100.00
36964;BME280;22878;48.616;35.326;2023-03-03T15:28:34;100668.36;;;4.26;100.00
36964;BME280;22878;48.616;35.326;2023-03-03T15:31:14;100670.46;;;4.22;100.00
36964;BME280;22878;48.616;35.326;2023-03-03T15:44:41;100671.02;;;4.01;100.00
36964;BME280;22878;48.616;35.326;2023-03-03T15:50:07;100674.83;;;3.96;100.00
36964;BME280;22878;48.616;35.326;2023-03-03T15:52:55;100674.84;;;3.94;100.00
36964;BME280;22878;48.616;35.326;2023-03-03T16:03:47;100677.30;;;3.83;100.00
36964;BME280;22878;48.616;35.326;2023-03-03T16:06:33;100676.70;;;3.80;100.00
36964;BME280;22878;48.616;35.326;2023-03-03T16:09:31;100679.42;;;3.78;100.00
36964;BME280;22878;48.616;35.326;2023-03-03T16:12:24;100673.95;;;3.74;100.00
36964;BME280;22878;48.616;35.326;2023-03-03T16:18:34;100667.92;;;3.69;100.00
36964;BME280;22878;48.616;35.326;2023-03-03T16:24:27;100663.87;;;3.65;100.00
36964;BME280;22878;48.616;35.326;2023-03-03T16:27:07;100661.00;;;3.64;100.00
36964;BME280;22878;48.616;35.326;2023-03-03T16:29:46;100660.23;;;3.63;100.00
36964;BME280;22878;48.616;35.326;2023-03-03T16:32:47;100652.98;;;3.61;100.00
36964;BME280;22878;48.616;35.326;2023-03-03T16:35:21;100650.90;;;3.60;100.00
36964;BME280;22878;48.616;35.326;2023-03-03T16:38:08;100649.58;;;3.60;100.00
36964;BME280;22878;48.616;35.326;2023-03-03T16:40:42;100648.20;;;3.59;100.00
36964;BME280;22878;48.616;35.326;2023-03-03T16:51:50;100649.33;;;3.52;100.00
36964;BME280;22878;48.616;35.326;2023-03-03T16:54:42;100643.16;;;3.52;100.00
36964;BME280;22878;48.616;35.326;2023-03-03T16:57:51;100637.66;;;3.50;100.00
36964;BME280;22878;48.616;35.326;2023-03-03T17:03:35;100633.29;;;3.47;100.00
36964;BME280;22878;48.616;35.326;2023-03-03T17:06:05;100628.83;;;3.47;100.00
36964;BME280;22878;48.616;35.326;2023-03-03T17:11:16;100625.19;;;3.45;100.00